sensor_id;sensor_type;location;lat;lon;timestamp;P1;durP1;ratioP1;P2;durP2;ratioP2
53010;SDS011;42803;55.762;38.084;2022-12-19T00:01:31;2.75;;;2.13;;
53010;SDS011;42803;55.762;38.084;2022-12-19T00:04:04;9.82;;;4.05;;
53010;SDS011;42803;55.762;38.084;2022-12-19T00:06:37;4.93;;;3.03;;
53010;SDS011;42803;55.762;38.084;2022-12-19T00:09:10;6.93;;;2.85;;
53010;SDS011;42803;55.762;38.084;2022-12-19T00:11:40;7.72;;;2.30;;
53010;SDS011;42803;55.762;38.084;2022-12-19T00:14:10;5.10;;;3.35;;
53010;SDS011;42803;55.762;38.084;2022-12-19T00:16:39;6.30;;;3.60;;
53010;SDS011;42803;55.762;38.084;2022-12-19T00:19:10;3.70;;;2.30;;
53010;SDS011;42803;55.762;38.084;2022-12-19T00:21:39;6.80;;;3.13;;
53010;SDS011;42803;55.762;38.084;2022-12-19T00:24:08;4.50;;;2.55;;
53010;SDS011;42803;55.762;38.084;2022-12-19T00:26:47;3.92;;;2.95;;
53010;SDS011;42803;55.762;38.084;2022-12-19T00:29:17;2.80;;;2.03;;
53010;SDS011;42803;55.762;38.084;2022-12-19T00:31:46;4.80;;;2.42;;
53010;SDS011;42803;55.762;38.084;2022-12-19T00:34:16;5.80;;;2.50;;
53010;SDS011;42803;55.762;38.084;2022-12-19T00:36:45;4.25;;;3.08;;
53010;SDS011;42803;55.762;38.084;2022-12-19T00:39:14;3.80;;;2.70;;
53010;SDS011;42803;55.762;38.084;2022-12-19T00:41:45;5.35;;;3.22;;
53010;SDS011;42803;55.762;38.084;2022-12-19T00:44:14;8.65;;;4.20;;
53010;SDS011;42803;55.762;38.084;2022-12-19T00:46:43;8.02;;;3.38;;
53010;SDS011;42803;55.762;38.084;2022-12-19T00:49:20;5.78;;;2.42;;
53010;SDS011;42803;55.762;38.084;2022-12-19T00:51:49;7.60;;;2.63;;
53010;SDS011;42803;55.762;38.084;2022-12-19T00:54:18;4.18;;;2.70;;
53010;SDS011;42803;55.762;38.084;2022-12-19T00:56:48;7.18;;;2.88;;
53010;SDS011;42803;55.762;38.084;2022-12-19T00:59:17;3.40;;;2.58;;
53010;SDS011;42803;55.762;38.084;2022-12-19T01:01:55;3.90;;;2.75;;
53010;SDS011;42803;55.762;38.084;2022-12-19T01:04:26;6.30;;;2.53;;
53010;SDS011;42803;55.762;38.084;2022-12-19T01:06:58;6.47;;;3.17;;
53010;SDS011;42803;55.762;38.084;2022-12-19T01:09:32;4.97;;;2.78;;
53010;SDS011;42803;55.762;38.084;2022-12-19T01:12:03;3.70;;;2.10;;
53010;SDS011;42803;55.762;38.084;2022-12-19T01:14:52;6.65;;;2.85;;
53010;SDS011;42803;55.762;38.084;2022-12-19T01:17:32;4.07;;;2.20;;
53010;SDS011;42803;55.762;38.084;2022-12-19T01:20:12;2.50;;;1.58;;
53010;SDS011;42803;55.762;38.084;2022-12-19T01:22:45;5.72;;;3.08;;
53010;SDS011;42803;55.762;38.084;2022-12-19T01:25:15;6.88;;;2.78;;
53010;SDS011;42803;55.762;38.084;2022-12-19T01:27:44;6.60;;;3.03;;
53010;SDS011;42803;55.762;38.084;2022-12-19T01:30:13;5.40;;;2.40;;
53010;SDS011;42803;55.762;38.084;2022-12-19T01:32:42;3.50;;;2.33;;
53010;SDS011;42803;55.762;38.084;2022-12-19T01:35:13;8.40;;;3.22;;
53010;SDS011;42803;55.762;38.084;2022-12-19T01:37:48;4.03;;;2.22;;
53010;SDS011;42803;55.762;38.084;2022-12-19T01:40:22;5.32;;;2.67;;
53010;SDS011;42803;55.762;38.084;2022-12-19T01:42:51;4.70;;;2.83;;
53010;SDS011;42803;55.762;38.084;2022-12-19T01:45:27;4.18;;;2.28;;
53010;SDS011;42803;55.762;38.084;2022-12-19T01:48:02;4.25;;;2.40;;
53010;SDS011;42803;55.762;38.084;2022-12-19T01:50:42;3.10;;;2.13;;
53010;SDS011;42803;55.762;38.084;2022-12-19T01:53:30;2.30;;;1.52;;
53010;SDS011;42803;55.762;38.084;2022-12-19T01:56:15;4.50;;;2.40;;
53010;SDS011;42803;55.762;38.084;2022-12-19T01:58:47;4.53;;;2.83;;
53010;SDS011;42803;55.762;38.084;2022-12-19T02:01:35;2.60;;;2.03;;
53010;SDS011;42803;55.762;38.084;2022-12-19T02:04:22;4.88;;;2.65;;
53010;SDS011;42803;55.762;38.084;2022-12-19T02:06:59;6.35;;;2.33;;
53010;SDS011;42803;55.762;38.084;2022-12-19T02:09:42;3.40;;;2.38;;
53010;SDS011;42803;55.762;38.084;2022-12-19T02:12:12;4.10;;;2.33;;
53010;SDS011;42803;55.762;38.084;2022-12-19T02:14:42;7.78;;;2.97;;
53010;SDS011;42803;55.762;38.084;2022-12-19T02:17:14;5.55;;;2.60;;
53010;SDS011;42803;55.762;38.084;2022-12-19T02:23:02;4.95;;;3.40;;
53010;SDS011;42803;55.762;38.084;2022-12-19T02:25:57;4.65;;;3.13;;
53010;SDS011;42803;55.762;38.084;2022-12-19T02:28:44;7.15;;;3.08;;
53010;SDS011;42803;55.762;38.084;2022-12-19T02:31:32;6.88;;;3.22;;
53010;SDS011;42803;55.762;38.084;2022-12-19T02:34:07;6.28;;;3.13;;
53010;SDS011;42803;55.762;38.084;2022-12-19T02:36:52;8.93;;;3.45;;
53010;SDS011;42803;55.762;38.084;2022-12-19T02:39:27;9.60;;;4.00;;
53010;SDS011;42803;55.762;38.084;2022-12-19T02:42:02;7.30;;;3.53;;
53010;SDS011;42803;55.762;38.084;2022-12-19T02:44:38;8.90;;;2.80;;
53010;SDS011;42803;55.762;38.084;2022-12-19T02:47:11;5.38;;;3.47;;
53010;SDS011;42803;55.762;38.084;2022-12-19T02:49:42;7.00;;;3.30;;
53010;SDS011;42803;55.762;38.084;2022-12-19T02:52:12;6.90;;;3.42;;
53010;SDS011;42803;55.762;38.084;2022-12-19T02:54:57;6.70;;;3.10;;
53010;SDS011;42803;55.762;38.084;2022-12-19T02:57:30;5.57;;;2.90;;
53010;SDS011;42803;55.762;38.084;2022-12-19T03:00:07;5.22;;;3.03;;
53010;SDS011;42803;55.762;38.084;2022-12-19T03:02:42;7.10;;;3.47;;
53010;SDS011;42803;55.762;38.084;2022-12-19T03:05:30;4.78;;;2.78;;
53010;SDS011;42803;55.762;38.084;2022-12-19T03:08:07;6.50;;;2.90;;
53010;SDS011;42803;55.762;38.084;2022-12-19T03:10:53;5.65;;;3.10;;
53010;SDS011;42803;55.762;38.084;2022-12-19T03:13:27;7.00;;;3.38;;
53010;SDS011;42803;55.762;38.084;2022-12-19T03:16:00;9.88;;;3.72;;
53010;SDS011;42803;55.762;38.084;2022-12-19T03:18:33;9.50;;;3.42;;
53010;SDS011;42803;55.762;38.084;2022-12-19T03:21:04;4.85;;;3.55;;
53010;SDS011;42803;55.762;38.084;2022-12-19T03:23:40;7.90;;;3.72;;
53010;SDS011;42803;55.762;38.084;2022-12-19T03:26:13;5.55;;;3.05;;
53010;SDS011;42803;55.762;38.084;2022-12-19T03:28:46;6.03;;;3.22;;
53010;SDS011;42803;55.762;38.084;2022-12-19T03:31:20;4.88;;;3.30;;
53010;SDS011;42803;55.762;38.084;2022-12-19T03:33:55;7.63;;;3.55;;
53010;SDS011;42803;55.762;38.084;2022-12-19T03:36:27;5.75;;;3.30;;
53010;SDS011;42803;55.762;38.084;2022-12-19T03:41:34;13.25;;;4.22;;
53010;SDS011;42803;55.762;38.084;2022-12-19T03:44:22;8.05;;;4.25;;
53010;SDS011;42803;55.762;38.084;2022-12-19T03:46:56;12.52;;;4.60;;
53010;SDS011;42803;55.762;38.084;2022-12-19T03:49:30;7.53;;;3.83;;
53010;SDS011;42803;55.762;38.084;2022-12-19T03:52:00;6.82;;;3.88;;
53010;SDS011;42803;55.762;38.084;2022-12-19T03:54:39;11.38;;;3.53;;
53010;SDS011;42803;55.762;38.084;2022-12-19T03:57:15;10.02;;;4.22;;
53010;SDS011;42803;55.762;38.084;2022-12-19T03:59:49;7.83;;;4.33;;
53010;SDS011;42803;55.762;38.084;2022-12-19T04:02:23;5.05;;;3.30;;
53010;SDS011;42803;55.762;38.084;2022-12-19T04:04:55;8.05;;;4.15;;
53010;SDS011;42803;55.762;38.084;2022-12-19T04:07:29;12.18;;;5.03;;
53010;SDS011;42803;55.762;38.084;2022-12-19T04:09:59;10.82;;;5.05;;
53010;SDS011;42803;55.762;38.084;2022-12-19T04:12:33;10.77;;;5.88;;
53010;SDS011;42803;55.762;38.084;2022-12-19T04:15:06;9.07;;;4.68;;
53010;SDS011;42803;55.762;38.084;2022-12-19T04:17:38;9.63;;;4.63;;
53010;SDS011;42803;55.762;38.084;2022-12-19T04:20:12;9.60;;;4.35;;
53010;SDS011;42803;55.762;38.084;2022-12-19T04:22:42;10.73;;;5.00;;
53010;SDS011;42803;55.762;38.084;2022-12-19T04:25:25;8.32;;;3.45;;
53010;SDS011;42803;55.762;38.084;2022-12-19T04:27:57;7.28;;;4.15;;
53010;SDS011;42803;55.762;38.084;2022-12-19T04:30:31;8.25;;;4.28;;
53010;SDS011;42803;55.762;38.084;2022-12-19T04:33:03;7.93;;;4.30;;
53010;SDS011;42803;55.762;38.084;2022-12-19T04:35:35;6.78;;;3.22;;
53010;SDS011;42803;55.762;38.084;2022-12-19T04:38:05;7.03;;;3.42;;
53010;SDS011;42803;55.762;38.084;2022-12-19T04:40:34;10.07;;;3.67;;
53010;SDS011;42803;55.762;38.084;2022-12-19T04:43:07;10.57;;;4.45;;
53010;SDS011;42803;55.762;38.084;2022-12-19T04:45:37;10.00;;;4.53;;
53010;SDS011;42803;55.762;38.084;2022-12-19T04:48:08;11.60;;;4.95;;
53010;SDS011;42803;55.762;38.084;2022-12-19T04:50:39;8.10;;;4.50;;
53010;SDS011;42803;55.762;38.084;2022-12-19T04:53:08;13.65;;;3.90;;
53010;SDS011;42803;55.762;38.084;2022-12-19T04:55:37;12.88;;;5.07;;
53010;SDS011;42803;55.762;38.084;2022-12-19T04:58:07;11.43;;;5.63;;
53010;SDS011;42803;55.762;38.084;2022-12-19T05:00:36;12.48;;;5.38;;
53010;SDS011;42803;55.762;38.084;2022-12-19T05:03:05;12.60;;;5.30;;
53010;SDS011;42803;55.762;38.084;2022-12-19T05:05:34;12.18;;;4.85;;
53010;SDS011;42803;55.762;38.084;2022-12-19T05:08:04;8.48;;;4.97;;
53010;SDS011;42803;55.762;38.084;2022-12-19T05:10:34;17.25;;;6.18;;
53010;SDS011;42803;55.762;38.084;2022-12-19T05:13:03;10.80;;;4.93;;
53010;SDS011;42803;55.762;38.084;2022-12-19T05:15:32;9.20;;;3.92;;
53010;SDS011;42803;55.762;38.084;2022-12-19T05:18:02;11.07;;;4.78;;
53010;SDS011;42803;55.762;38.084;2022-12-19T05:20:31;8.20;;;4.63;;
53010;SDS011;42803;55.762;38.084;2022-12-19T05:23:00;13.00;;;5.35;;
53010;SDS011;42803;55.762;38.084;2022-12-19T05:25:37;13.57;;;5.68;;
53010;SDS011;42803;55.762;38.084;2022-12-19T05:28:06;14.55;;;5.35;;
53010;SDS011;42803;55.762;38.084;2022-12-19T05:30:35;12.90;;;6.47;;
53010;SDS011;42803;55.762;38.084;2022-12-19T05:33:05;10.40;;;4.93;;
53010;SDS011;42803;55.762;38.084;2022-12-19T05:35:34;14.13;;;5.32;;
53010;SDS011;42803;55.762;38.084;2022-12-19T05:38:04;12.35;;;5.70;;
53010;SDS011;42803;55.762;38.084;2022-12-19T05:40:33;9.50;;;4.72;;
53010;SDS011;42803;55.762;38.084;2022-12-19T05:43:04;9.20;;;4.45;;
53010;SDS011;42803;55.762;38.084;2022-12-19T05:45:33;11.15;;;3.88;;
53010;SDS011;42803;55.762;38.084;2022-12-19T05:48:02;10.40;;;4.75;;
53010;SDS011;42803;55.762;38.084;2022-12-19T05:50:35;10.30;;;4.53;;
53010;SDS011;42803;55.762;38.084;2022-12-19T05:53:10;9.82;;;4.55;;
53010;SDS011;42803;55.762;38.084;2022-12-19T05:55:40;8.20;;;4.00;;
53010;SDS011;42803;55.762;38.084;2022-12-19T05:58:11;9.65;;;4.65;;
53010;SDS011;42803;55.762;38.084;2022-12-19T06:00:40;11.25;;;4.90;;
53010;SDS011;42803;55.762;38.084;2022-12-19T06:03:10;9.65;;;4.35;;
53010;SDS011;42803;55.762;38.084;2022-12-19T06:05:39;10.80;;;4.80;;
53010;SDS011;42803;55.762;38.084;2022-12-19T06:08:09;12.77;;;4.38;;
53010;SDS011;42803;55.762;38.084;2022-12-19T06:10:37;8.95;;;4.35;;
53010;SDS011;42803;55.762;38.084;2022-12-19T06:13:06;10.05;;;4.30;;
53010;SDS011;42803;55.762;38.084;2022-12-19T06:15:37;11.07;;;4.85;;
53010;SDS011;42803;55.762;38.084;2022-12-19T06:18:06;8.63;;;4.65;;
53010;SDS011;42803;55.762;38.084;2022-12-19T06:20:35;8.75;;;4.00;;
53010;SDS011;42803;55.762;38.084;2022-12-19T06:23:05;9.75;;;3.83;;
53010;SDS011;42803;55.762;38.084;2022-12-19T06:25:35;14.68;;;4.88;;
53010;SDS011;42803;55.762;38.084;2022-12-19T06:28:04;15.38;;;4.63;;
53010;SDS011;42803;55.762;38.084;2022-12-19T06:30:34;12.82;;;3.92;;
53010;SDS011;42803;55.762;38.084;2022-12-19T06:33:04;11.68;;;4.50;;
53010;SDS011;42803;55.762;38.084;2022-12-19T06:35:34;8.85;;;4.47;;
53010;SDS011;42803;55.762;38.084;2022-12-19T06:38:03;8.07;;;3.63;;
53010;SDS011;42803;55.762;38.084;2022-12-19T06:40:32;7.47;;;4.28;;
53010;SDS011;42803;55.762;38.084;2022-12-19T06:43:18;8.18;;;4.05;;
53010;SDS011;42803;55.762;38.084;2022-12-19T06:45:47;7.63;;;3.72;;
53010;SDS011;42803;55.762;38.084;2022-12-19T06:48:17;8.32;;;4.30;;
53010;SDS011;42803;55.762;38.084;2022-12-19T06:50:47;5.65;;;2.65;;
53010;SDS011;42803;55.762;38.084;2022-12-19T06:53:17;7.20;;;3.53;;
53010;SDS011;42803;55.762;38.084;2022-12-19T06:55:46;10.13;;;4.00;;
53010;SDS011;42803;55.762;38.084;2022-12-19T06:58:16;9.50;;;3.50;;
53010;SDS011;42803;55.762;38.084;2022-12-19T07:00:50;8.77;;;3.67;;
53010;SDS011;42803;55.762;38.084;2022-12-19T07:03:22;8.50;;;4.38;;
53010;SDS011;42803;55.762;38.084;2022-12-19T07:05:55;11.43;;;3.42;;
53010;SDS011;42803;55.762;38.084;2022-12-19T07:08:24;5.75;;;3.50;;
53010;SDS011;42803;55.762;38.084;2022-12-19T07:10:53;7.30;;;4.10;;
53010;SDS011;42803;55.762;38.084;2022-12-19T07:13:22;8.52;;;4.00;;
53010;SDS011;42803;55.762;38.084;2022-12-19T07:15:51;7.63;;;3.42;;
53010;SDS011;42803;55.762;38.084;2022-12-19T07:18:26;5.70;;;2.85;;
53010;SDS011;42803;55.762;38.084;2022-12-19T07:20:57;8.82;;;4.32;;
53010;SDS011;42803;55.762;38.084;2022-12-19T07:23:26;7.78;;;3.30;;
53010;SDS011;42803;55.762;38.084;2022-12-19T07:25:56;8.57;;;4.05;;
53010;SDS011;42803;55.762;38.084;2022-12-19T07:28:25;9.38;;;3.88;;
53010;SDS011;42803;55.762;38.084;2022-12-19T07:30:54;7.50;;;3.42;;
53010;SDS011;42803;55.762;38.084;2022-12-19T07:33:23;7.07;;;3.58;;
53010;SDS011;42803;55.762;38.084;2022-12-19T07:35:54;7.53;;;3.30;;
53010;SDS011;42803;55.762;38.084;2022-12-19T07:38:23;8.38;;;3.25;;
53010;SDS011;42803;55.762;38.084;2022-12-19T07:40:52;7.50;;;3.53;;
53010;SDS011;42803;55.762;38.084;2022-12-19T07:43:21;13.13;;;4.50;;
53010;SDS011;42803;55.762;38.084;2022-12-19T07:45:52;5.05;;;3.22;;
53010;SDS011;42803;55.762;38.084;2022-12-19T07:48:22;10.60;;;4.22;;
53010;SDS011;42803;55.762;38.084;2022-12-19T07:50:53;9.38;;;4.40;;
53010;SDS011;42803;55.762;38.084;2022-12-19T07:53:22;6.85;;;3.05;;
53010;SDS011;42803;55.762;38.084;2022-12-19T07:55:51;5.18;;;3.28;;
53010;SDS011;42803;55.762;38.084;2022-12-19T07:58:20;9.30;;;3.50;;
53010;SDS011;42803;55.762;38.084;2022-12-19T08:00:53;12.40;;;3.88;;
53010;SDS011;42803;55.762;38.084;2022-12-19T08:03:23;5.97;;;3.15;;
53010;SDS011;42803;55.762;38.084;2022-12-19T08:05:57;2.42;;;2.20;;
53010;SDS011;42803;55.762;38.084;2022-12-19T08:08:27;4.78;;;2.67;;
53010;SDS011;42803;55.762;38.084;2022-12-19T08:11:04;7.35;;;3.47;;
53010;SDS011;42803;55.762;38.084;2022-12-19T08:13:35;7.47;;;3.08;;
53010;SDS011;42803;55.762;38.084;2022-12-19T08:16:13;8.98;;;3.70;;
53010;SDS011;42803;55.762;38.084;2022-12-19T08:18:42;5.05;;;2.75;;
53010;SDS011;42803;55.762;38.084;2022-12-19T08:21:13;6.50;;;4.00;;
53010;SDS011;42803;55.762;38.084;2022-12-19T08:23:42;4.78;;;2.65;;
53010;SDS011;42803;55.762;38.084;2022-12-19T08:26:12;9.75;;;3.38;;
53010;SDS011;42803;55.762;38.084;2022-12-19T08:28:42;6.15;;;3.45;;
53010;SDS011;42803;55.762;38.084;2022-12-19T08:31:14;6.03;;;3.67;;
53010;SDS011;42803;55.762;38.084;2022-12-19T08:33:44;10.25;;;4.00;;
53010;SDS011;42803;55.762;38.084;2022-12-19T08:36:16;7.40;;;3.63;;
53010;SDS011;42803;55.762;38.084;2022-12-19T08:38:46;6.55;;;3.08;;
53010;SDS011;42803;55.762;38.084;2022-12-19T08:41:17;7.72;;;3.42;;
53010;SDS011;42803;55.762;38.084;2022-12-19T08:43:47;6.05;;;2.88;;
53010;SDS011;42803;55.762;38.084;2022-12-19T08:46:17;9.25;;;3.40;;
53010;SDS011;42803;55.762;38.084;2022-12-19T08:48:46;5.10;;;3.03;;
53010;SDS011;42803;55.762;38.084;2022-12-19T08:51:17;7.97;;;3.95;;
53010;SDS011;42803;55.762;38.084;2022-12-19T08:53:46;9.20;;;4.00;;
53010;SDS011;42803;55.762;38.084;2022-12-19T08:56:17;7.43;;;2.85;;
53010;SDS011;42803;55.762;38.084;2022-12-19T08:58:49;5.07;;;3.40;;
53010;SDS011;42803;55.762;38.084;2022-12-19T09:01:19;8.88;;;4.95;;
53010;SDS011;42803;55.762;38.084;2022-12-19T09:03:50;10.60;;;4.45;;
53010;SDS011;42803;55.762;38.084;2022-12-19T09:06:40;10.90;;;3.45;;
53010;SDS011;42803;55.762;38.084;2022-12-19T09:09:10;10.57;;;3.92;;
53010;SDS011;42803;55.762;38.084;2022-12-19T09:11:38;6.72;;;4.03;;
53010;SDS011;42803;55.762;38.084;2022-12-19T09:14:14;8.30;;;3.58;;
53010;SDS011;42803;55.762;38.084;2022-12-19T09:16:47;11.15;;;3.95;;
53010;SDS011;42803;55.762;38.084;2022-12-19T09:19:16;7.95;;;3.38;;
53010;SDS011;42803;55.762;38.084;2022-12-19T09:21:47;6.63;;;3.65;;
53010;SDS011;42803;55.762;38.084;2022-12-19T09:24:16;7.35;;;3.45;;
53010;SDS011;42803;55.762;38.084;2022-12-19T09:26:45;7.50;;;3.88;;
53010;SDS011;42803;55.762;38.084;2022-12-19T09:29:14;9.55;;;3.83;;
53010;SDS011;42803;55.762;38.084;2022-12-19T09:31:47;5.85;;;3.13;;
53010;SDS011;42803;55.762;38.084;2022-12-19T09:34:23;8.57;;;3.88;;
53010;SDS011;42803;55.762;38.084;2022-12-19T09:37:06;8.32;;;3.90;;
53010;SDS011;42803;55.762;38.084;2022-12-19T09:39:44;7.50;;;3.33;;
53010;SDS011;42803;55.762;38.084;2022-12-19T09:42:20;8.63;;;3.13;;
53010;SDS011;42803;55.762;38.084;2022-12-19T09:45:10;9.27;;;4.35;;
53010;SDS011;42803;55.762;38.084;2022-12-19T09:47:59;7.65;;;4.07;;
53010;SDS011;42803;55.762;38.084;2022-12-19T09:50:41;6.10;;;2.90;;
53010;SDS011;42803;55.762;38.084;2022-12-19T09:53:18;11.05;;;4.03;;
53010;SDS011;42803;55.762;38.084;2022-12-19T09:55:51;10.23;;;3.47;;
53010;SDS011;42803;55.762;38.084;2022-12-19T09:58:31;6.50;;;3.83;;
53010;SDS011;42803;55.762;38.084;2022-12-19T10:01:04;6.78;;;4.05;;
53010;SDS011;42803;55.762;38.084;2022-12-19T10:03:40;9.20;;;3.33;;
53010;SDS011;42803;55.762;38.084;2022-12-19T10:06:14;9.80;;;3.30;;
53010;SDS011;42803;55.762;38.084;2022-12-19T10:09:09;9.63;;;4.00;;
53010;SDS011;42803;55.762;38.084;2022-12-19T10:12:04;4.00;;;2.88;;
53010;SDS011;42803;55.762;38.084;2022-12-19T10:15:11;6.75;;;3.53;;
53010;SDS011;42803;55.762;38.084;2022-12-19T10:17:52;5.13;;;3.10;;
53010;SDS011;42803;55.762;38.084;2022-12-19T10:20:32;6.68;;;3.53;;
53010;SDS011;42803;55.762;38.084;2022-12-19T10:23:08;3.50;;;2.47;;
53010;SDS011;42803;55.762;38.084;2022-12-19T10:25:53;7.30;;;3.38;;
53010;SDS011;42803;55.762;38.084;2022-12-19T10:28:31;4.82;;;2.85;;
53010;SDS011;42803;55.762;38.084;2022-12-19T10:31:16;9.60;;;4.25;;
53010;SDS011;42803;55.762;38.084;2022-12-19T10:33:51;10.35;;;4.47;;
53010;SDS011;42803;55.762;38.084;2022-12-19T10:36:24;10.10;;;4.47;;
53010;SDS011;42803;55.762;38.084;2022-12-19T10:39:16;4.35;;;3.13;;
53010;SDS011;42803;55.762;38.084;2022-12-19T10:41:55;7.50;;;4.03;;
53010;SDS011;42803;55.762;38.084;2022-12-19T10:44:29;9.77;;;4.82;;
53010;SDS011;42803;55.762;38.084;2022-12-19T10:47:04;10.57;;;4.38;;
53010;SDS011;42803;55.762;38.084;2022-12-19T10:49:41;6.13;;;2.92;;
53010;SDS011;42803;55.762;38.084;2022-12-19T10:52:11;5.82;;;3.55;;
53010;SDS011;42803;55.762;38.084;2022-12-19T10:54:40;7.68;;;3.85;;
53010;SDS011;42803;55.762;38.084;2022-12-19T10:57:18;11.80;;;4.25;;
53010;SDS011;42803;55.762;38.084;2022-12-19T10:59:54;7.97;;;3.67;;
53010;SDS011;42803;55.762;38.084;2022-12-19T11:02:34;11.13;;;4.50;;
53010;SDS011;42803;55.762;38.084;2022-12-19T11:05:21;8.00;;;4.03;;
53010;SDS011;42803;55.762;38.084;2022-12-19T11:07:58;11.98;;;4.68;;
53010;SDS011;42803;55.762;38.084;2022-12-19T11:10:32;6.65;;;3.17;;
53010;SDS011;42803;55.762;38.084;2022-12-19T11:13:26;8.80;;;3.60;;
53010;SDS011;42803;55.762;38.084;2022-12-19T11:16:20;9.57;;;4.38;;
53010;SDS011;42803;55.762;38.084;2022-12-19T11:19:18;9.32;;;3.38;;
53010;SDS011;42803;55.762;38.084;2022-12-19T11:22:13;6.30;;;2.92;;
53010;SDS011;42803;55.762;38.084;2022-12-19T11:25:12;8.60;;;3.47;;
53010;SDS011;42803;55.762;38.084;2022-12-19T11:28:03;9.80;;;4.20;;
53010;SDS011;42803;55.762;38.084;2022-12-19T11:31:06;10.95;;;4.72;;
53010;SDS011;42803;55.762;38.084;2022-12-19T11:34:02;10.35;;;4.13;;
53010;SDS011;42803;55.762;38.084;2022-12-19T11:36:34;13.63;;;4.93;;
53010;SDS011;42803;55.762;38.084;2022-12-19T11:39:09;8.95;;;3.83;;
53010;SDS011;42803;55.762;38.084;2022-12-19T11:41:45;7.63;;;3.47;;
53010;SDS011;42803;55.762;38.084;2022-12-19T11:44:21;9.25;;;3.97;;
53010;SDS011;42803;55.762;38.084;2022-12-19T11:46:58;12.43;;;4.45;;
53010;SDS011;42803;55.762;38.084;2022-12-19T11:49:34;8.77;;;3.08;;
53010;SDS011;42803;55.762;38.084;2022-12-19T11:52:09;9.23;;;4.95;;
53010;SDS011;42803;55.762;38.084;2022-12-19T11:55:06;9.80;;;4.55;;
53010;SDS011;42803;55.762;38.084;2022-12-19T11:57:45;9.93;;;4.53;;
53010;SDS011;42803;55.762;38.084;2022-12-19T12:00:15;7.88;;;4.55;;
53010;SDS011;42803;55.762;38.084;2022-12-19T12:03:06;17.00;;;4.72;;
53010;SDS011;42803;55.762;38.084;2022-12-19T12:05:55;11.82;;;4.30;;
53010;SDS011;42803;55.762;38.084;2022-12-19T12:08:33;11.90;;;5.05;;
53010;SDS011;42803;55.762;38.084;2022-12-19T12:11:41;11.50;;;4.95;;
53010;SDS011;42803;55.762;38.084;2022-12-19T12:14:36;7.28;;;3.83;;
53010;SDS011;42803;55.762;38.084;2022-12-19T12:17:40;9.18;;;4.50;;
53010;SDS011;42803;55.762;38.084;2022-12-19T12:20:39;8.98;;;4.68;;
53010;SDS011;42803;55.762;38.084;2022-12-19T12:23:42;11.07;;;4.93;;
53010;SDS011;42803;55.762;38.084;2022-12-19T12:26:47;9.90;;;4.65;;
53010;SDS011;42803;55.762;38.084;2022-12-19T12:29:46;11.00;;;4.30;;
53010;SDS011;42803;55.762;38.084;2022-12-19T12:32:50;5.55;;;3.38;;
53010;SDS011;42803;55.762;38.084;2022-12-19T12:35:53;8.85;;;4.57;;
53010;SDS011;42803;55.762;38.084;2022-12-19T12:38:50;11.48;;;4.47;;
53010;SDS011;42803;55.762;38.084;2022-12-19T12:41:34;7.22;;;3.38;;
53010;SDS011;42803;55.762;38.084;2022-12-19T12:44:29;8.85;;;4.47;;
53010;SDS011;42803;55.762;38.084;2022-12-19T12:47:04;12.02;;;4.63;;
53010;SDS011;42803;55.762;38.084;2022-12-19T12:49:42;7.43;;;3.38;;
53010;SDS011;42803;55.762;38.084;2022-12-19T12:52:15;10.68;;;5.10;;
53010;SDS011;42803;55.762;38.084;2022-12-19T12:54:47;11.80;;;4.10;;
53010;SDS011;42803;55.762;38.084;2022-12-19T12:57:19;11.43;;;5.00;;
53010;SDS011;42803;55.762;38.084;2022-12-19T13:00:15;9.68;;;5.10;;
53010;SDS011;42803;55.762;38.084;2022-12-19T13:02:51;10.63;;;5.53;;
53010;SDS011;42803;55.762;38.084;2022-12-19T13:05:37;14.23;;;5.65;;
53010;SDS011;42803;55.762;38.084;2022-12-19T13:08:26;14.13;;;5.53;;
53010;SDS011;42803;55.762;38.084;2022-12-19T13:11:10;9.98;;;4.93;;
53010;SDS011;42803;55.762;38.084;2022-12-19T13:16:47;14.02;;;5.75;;
53010;SDS011;42803;55.762;38.084;2022-12-19T13:19:21;13.27;;;4.97;;
53010;SDS011;42803;55.762;38.084;2022-12-19T13:22:12;8.57;;;3.85;;
53010;SDS011;42803;55.762;38.084;2022-12-19T13:24:49;8.80;;;4.45;;
53010;SDS011;42803;55.762;38.084;2022-12-19T13:27:32;10.65;;;5.43;;
53010;SDS011;42803;55.762;38.084;2022-12-19T13:30:15;12.50;;;5.43;;
53010;SDS011;42803;55.762;38.084;2022-12-19T13:35:36;8.85;;;4.30;;
53010;SDS011;42803;55.762;38.084;2022-12-19T13:38:26;7.15;;;3.55;;
53010;SDS011;42803;55.762;38.084;2022-12-19T13:41:26;8.10;;;4.60;;
53010;SDS011;42803;55.762;38.084;2022-12-19T13:44:17;10.45;;;5.60;;
53010;SDS011;42803;55.762;38.084;2022-12-19T13:46:47;10.82;;;4.50;;
53010;SDS011;42803;55.762;38.084;2022-12-19T13:49:23;14.02;;;4.95;;
53010;SDS011;42803;55.762;38.084;2022-12-19T13:52:02;13.05;;;5.05;;
53010;SDS011;42803;55.762;38.084;2022-12-19T13:54:36;13.10;;;4.95;;
53010;SDS011;42803;55.762;38.084;2022-12-19T13:57:21;11.85;;;4.78;;
53010;SDS011;42803;55.762;38.084;2022-12-19T13:59:52;9.07;;;5.00;;
53010;SDS011;42803;55.762;38.084;2022-12-19T14:02:36;12.18;;;4.93;;
53010;SDS011;42803;55.762;38.084;2022-12-19T14:05:18;8.82;;;4.93;;
53010;SDS011;42803;55.762;38.084;2022-12-19T14:08:11;11.43;;;5.45;;
53010;SDS011;42803;55.762;38.084;2022-12-19T14:10:50;8.15;;;3.92;;
53010;SDS011;42803;55.762;38.084;2022-12-19T14:13:43;15.77;;;5.18;;
53010;SDS011;42803;55.762;38.084;2022-12-19T14:16:44;11.90;;;4.90;;
53010;SDS011;42803;55.762;38.084;2022-12-19T14:19:19;10.82;;;4.95;;
53010;SDS011;42803;55.762;38.084;2022-12-19T14:21:50;7.75;;;4.18;;
53010;SDS011;42803;55.762;38.084;2022-12-19T14:24:38;13.52;;;5.22;;
53010;SDS011;42803;55.762;38.084;2022-12-19T14:27:09;8.85;;;4.80;;
53010;SDS011;42803;55.762;38.084;2022-12-19T14:30:05;13.98;;;4.63;;
53010;SDS011;42803;55.762;38.084;2022-12-19T14:32:58;8.60;;;4.00;;
53010;SDS011;42803;55.762;38.084;2022-12-19T14:35:55;11.68;;;5.50;;
53010;SDS011;42803;55.762;38.084;2022-12-19T14:38:39;11.27;;;5.15;;
53010;SDS011;42803;55.762;38.084;2022-12-19T14:41:35;10.27;;;5.05;;
53010;SDS011;42803;55.762;38.084;2022-12-19T14:44:47;10.75;;;4.25;;
53010;SDS011;42803;55.762;38.084;2022-12-19T14:47:39;13.82;;;5.10;;
53010;SDS011;42803;55.762;38.084;2022-12-19T14:50:30;10.40;;;5.40;;
53010;SDS011;42803;55.762;38.084;2022-12-19T14:53:21;9.27;;;4.53;;
53010;SDS011;42803;55.762;38.084;2022-12-19T14:56:11;9.20;;;4.47;;
53010;SDS011;42803;55.762;38.084;2022-12-19T14:59:01;9.50;;;5.28;;
53010;SDS011;42803;55.762;38.084;2022-12-19T15:01:31;13.45;;;5.88;;
53010;SDS011;42803;55.762;38.084;2022-12-19T15:04:06;8.93;;;4.90;;
53010;SDS011;42803;55.762;38.084;2022-12-19T15:07:03;13.20;;;5.05;;
53010;SDS011;42803;55.762;38.084;2022-12-19T15:09:43;12.45;;;5.05;;
53010;SDS011;42803;55.762;38.084;2022-12-19T15:12:47;10.55;;;5.25;;
53010;SDS011;42803;55.762;38.084;2022-12-19T15:15:56;8.82;;;4.82;;
53010;SDS011;42803;55.762;38.084;2022-12-19T15:18:32;9.20;;;5.53;;
53010;SDS011;42803;55.762;38.084;2022-12-19T15:21:09;12.00;;;5.57;;
53010;SDS011;42803;55.762;38.084;2022-12-19T15:23:40;11.02;;;5.90;;
53010;SDS011;42803;55.762;38.084;2022-12-19T15:26:13;16.38;;;5.38;;
53010;SDS011;42803;55.762;38.084;2022-12-19T15:33:54;13.13;;;5.72;;
53010;SDS011;42803;55.762;38.084;2022-12-19T15:36:45;12.15;;;5.30;;
53010;SDS011;42803;55.762;38.084;2022-12-19T15:39:14;10.45;;;5.78;;
53010;SDS011;42803;55.762;38.084;2022-12-19T15:41:45;13.52;;;5.88;;
53010;SDS011;42803;55.762;38.084;2022-12-19T15:44:19;11.35;;;5.15;;